createdAt,value
2022-11-30T00:01:32.616Z,31.60
2022-11-30T00:04:00.424Z,33.93
2022-11-30T00:06:28.456Z,28.43
2022-11-30T00:08:58.055Z,28.33
2022-11-30T00:11:29.744Z,24.40
2022-11-30T00:13:57.652Z,32.97
2022-11-30T00:16:27.254Z,26.50
2022-11-30T00:18:55.231Z,28.50
2022-11-30T00:21:23.000Z,33.97
2022-11-30T00:23:50.831Z,36.07
2022-11-30T00:26:22.345Z,26.43
2022-11-30T00:28:51.853Z,28.90
2022-11-30T00:31:19.988Z,34.07
2022-11-30T00:33:48.344Z,40.23
2022-11-30T00:36:17.750Z,33.50
2022-11-30T00:38:46.401Z,29.97
2022-11-30T00:41:15.096Z,32.30
2022-11-30T00:43:43.575Z,30.10
2022-11-30T00:46:13.509Z,24.27
2022-11-30T00:48:42.193Z,25.60
2022-11-30T00:51:12.079Z,27.37
2022-11-30T00:53:40.945Z,22.23
2022-11-30T00:56:09.933Z,23.43
2022-11-30T00:58:37.781Z,27.73
2022-11-30T01:01:05.810Z,22.90
2022-11-30T01:03:35.436Z,22.00
2022-11-30T01:06:04.170Z,28.47
2022-11-30T01:08:32.143Z,27.00
2022-11-30T01:11:07.330Z,21.60
2022-11-30T01:13:35.207Z,23.30
2022-11-30T01:16:03.041Z,23.43
2022-11-30T01:18:30.868Z,20.10
2022-11-30T01:20:59.990Z,22.40
2022-11-30T01:23:27.742Z,22.30
2022-11-30T01:25:56.453Z,26.17
2022-11-30T01:28:24.314Z,25.00
2022-11-30T01:31:01.879Z,32.30
2022-11-30T01:33:29.739Z,24.20
2022-11-30T01:36:04.047Z,25.10
2022-11-30T01:38:35.462Z,28.17
2022-11-30T01:41:03.616Z,30.17
2022-11-30T01:43:42.870Z,29.70
2022-11-30T01:46:25.216Z,26.47
2022-11-30T01:49:00.604Z,28.07
2022-11-30T01:51:35.313Z,31.23
2022-11-30T01:54:05.435Z,31.70
2022-11-30T01:56:33.738Z,29.63
2022-11-30T01:59:01.678Z,28.80
2022-11-30T02:01:29.834Z,35.30
2022-11-30T02:04:03.324Z,31.93
2022-11-30T02:06:32.780Z,32.60
2022-11-30T02:09:03.495Z,32.50
2022-11-30T02:11:31.513Z,28.57
2022-11-30T02:14:17.320Z,30.33
2022-11-30T02:16:57.203Z,31.00
2022-11-30T02:19:57.717Z,28.50
2022-11-30T02:22:39.775Z,26.50
2022-11-30T02:25:19.165Z,26.70
2022-11-30T02:28:09.615Z,36.00
2022-11-30T02:30:43.985Z,27.80
2022-11-30T02:33:15.697Z,22.77
2022-11-30T02:35:54.366Z,27.70
2022-11-30T02:38:24.636Z,30.10
2022-11-30T02:40:52.731Z,30.83
2022-11-30T02:43:22.426Z,26.80
2022-11-30T02:46:00.388Z,25.40
2022-11-30T02:48:34.538Z,28.97
2022-11-30T02:51:05.195Z,27.30
2022-11-30T02:53:33.190Z,32.93
2022-11-30T02:56:01.019Z,30.67
2022-11-30T02:58:28.877Z,33.40
2022-11-30T03:00:58.043Z,37.73
2022-11-30T03:03:25.934Z,29.10
2022-11-30T03:05:53.747Z,27.97
2022-11-30T03:08:21.549Z,31.10
2022-11-30T03:10:49.315Z,32.17
2022-11-30T03:13:17.160Z,32.23
2022-11-30T03:15:45.050Z,29.93
2022-11-30T03:18:14.604Z,27.17
2022-11-30T03:20:42.601Z,28.57
2022-11-30T03:23:10.559Z,30.27
2022-11-30T03:25:38.352Z,29.00
2022-11-30T03:28:06.490Z,27.30
2022-11-30T03:30:34.274Z,31.07
2022-11-30T03:33:02.159Z,28.63
2022-11-30T03:35:31.526Z,34.90
2022-11-30T03:37:59.347Z,29.03
2022-11-30T03:40:27.191Z,29.37
2022-11-30T03:42:55.024Z,29.63
2022-11-30T03:45:22.915Z,28.63
2022-11-30T03:47:50.727Z,33.03
2022-11-30T03:50:24.327Z,29.20
2022-11-30T03:52:53.576Z,32.40
2022-11-30T03:55:21.462Z,30.47
2022-11-30T03:57:50.972Z,25.97
2022-11-30T04:00:20.224Z,26.53
2022-11-30T04:02:48.090Z,29.73
2022-11-30T04:05:16.011Z,25.60
2022-11-30T04:07:43.914Z,29.80
2022-11-30T04:10:13.626Z,23.33
2022-11-30T04:12:41.444Z,25.27
2022-11-30T04:15:10.453Z,28.17
2022-11-30T04:17:38.320Z,26.60
2022-11-30T04:20:07.751Z,34.10
2022-11-30T04:22:35.677Z,30.30
2022-11-30T04:25:06.790Z,35.10
2022-11-30T04:27:36.195Z,28.47
2022-11-30T04:30:04.610Z,24.33
2022-11-30T04:32:32.440Z,24.80
2022-11-30T04:35:00.282Z,29.43
2022-11-30T04:37:28.149Z,27.77
2022-11-30T04:39:55.955Z,27.00
2022-11-30T04:42:24.059Z,22.73
2022-11-30T04:44:53.275Z,23.53
2022-11-30T04:47:21.107Z,24.00
2022-11-30T04:49:49.005Z,21.97
2022-11-30T04:52:16.968Z,24.67
2022-11-30T04:54:45.191Z,25.13
2022-11-30T04:57:13.359Z,21.30
2022-11-30T04:59:41.154Z,26.53
2022-11-30T05:02:10.331Z,23.20
2022-11-30T05:04:38.148Z,21.83
2022-11-30T05:07:06.075Z,25.23
2022-11-30T05:09:34.244Z,20.80
2022-11-30T05:12:02.022Z,19.70
2022-11-30T05:14:30.797Z,20.37
2022-11-30T05:16:58.622Z,20.77
2022-11-30T05:19:27.724Z,20.70
2022-11-30T05:21:55.585Z,21.60
2022-11-30T05:24:23.447Z,24.63
2022-11-30T05:26:51.271Z,18.97
2022-11-30T05:29:19.063Z,23.40
2022-11-30T05:31:47.074Z,19.27
2022-11-30T05:34:14.984Z,16.50
2022-11-30T05:36:44.305Z,17.60
2022-11-30T05:39:12.211Z,18.33
2022-11-30T05:41:40.046Z,17.30
2022-11-30T05:44:07.831Z,18.57
2022-11-30T05:46:39.660Z,19.83
2022-11-30T05:49:08.857Z,24.57
2022-11-30T05:51:36.734Z,19.20
2022-11-30T05:54:06.107Z,20.07
2022-11-30T05:56:34.023Z,20.57
2022-11-30T05:59:01.873Z,24.93
2022-11-30T06:01:30.419Z,21.87
2022-11-30T06:03:58.760Z,17.60
2022-11-30T06:06:26.531Z,20.83
2022-11-30T06:08:55.545Z,20.63
2022-11-30T06:11:24.714Z,23.63
2022-11-30T06:13:52.644Z,25.90
2022-11-30T06:16:20.462Z,17.60
2022-11-30T06:18:48.291Z,20.70
2022-11-30T06:21:21.031Z,21.57
2022-11-30T06:23:51.895Z,23.80
2022-11-30T06:26:19.922Z,23.03
2022-11-30T06:28:49.251Z,16.70
2022-11-30T06:31:17.812Z,20.50
2022-11-30T06:33:45.638Z,21.47
2022-11-30T06:36:13.528Z,18.47
2022-11-30T06:38:41.377Z,17.87
2022-11-30T06:41:12.309Z,20.67
2022-11-30T06:43:40.924Z,22.23
2022-11-30T06:46:11.175Z,24.33
2022-11-30T06:48:39.093Z,20.00
2022-11-30T06:51:07.915Z,17.57
2022-11-30T06:53:36.262Z,20.97
2022-11-30T06:56:09.904Z,16.70
2022-11-30T06:58:39.417Z,22.70
2022-11-30T07:01:08.185Z,20.07
2022-11-30T07:03:37.515Z,23.30
2022-11-30T07:06:09.056Z,22.13
2022-11-30T07:08:37.217Z,19.97
2022-11-30T07:11:05.836Z,16.30
2022-11-30T07:13:33.754Z,18.13
2022-11-30T07:16:04.468Z,18.67
2022-11-30T07:18:32.846Z,22.10
2022-11-30T07:21:02.971Z,24.60
2022-11-30T07:23:55.602Z,19.03
2022-11-30T07:26:24.471Z,28.37
2022-11-30T07:28:55.483Z,24.87
2022-11-30T07:31:26.279Z,21.07
2022-11-30T07:33:54.219Z,33.07
2022-11-30T07:36:25.371Z,26.23
2022-11-30T07:38:53.343Z,24.43
2022-11-30T07:41:21.103Z,26.53
2022-11-30T07:43:48.958Z,23.53
2022-11-30T07:46:17.703Z,23.43
2022-11-30T07:48:47.275Z,29.83
2022-11-30T07:51:17.098Z,27.63
2022-11-30T07:53:49.943Z,30.00
2022-11-30T07:56:20.566Z,33.80
2022-11-30T07:58:49.149Z,31.60
2022-11-30T08:01:19.639Z,27.07
2022-11-30T08:03:47.528Z,31.77
2022-11-30T08:06:17.196Z,29.47
2022-11-30T08:08:45.966Z,25.77
2022-11-30T08:11:16.847Z,27.83
2022-11-30T08:13:45.209Z,26.97
2022-11-30T08:16:15.167Z,26.03
2022-11-30T08:18:43.656Z,26.60
2022-11-30T08:21:14.117Z,27.57
2022-11-30T08:23:43.593Z,29.47
2022-11-30T08:26:13.302Z,23.10
2022-11-30T08:28:43.255Z,22.70
2022-11-30T08:31:13.516Z,23.13
2022-11-30T08:33:42.115Z,23.77
2022-11-30T08:36:12.052Z,28.17
2022-11-30T08:38:41.071Z,26.57
2022-11-30T08:41:09.716Z,24.40
2022-11-30T08:43:37.580Z,32.60
2022-11-30T08:49:13.041Z,29.40
2022-11-30T08:52:15.507Z,28.50
2022-11-30T08:54:32.088Z,32.23
2022-11-30T08:57:00.049Z,31.27
2022-11-30T08:59:27.789Z,27.00
2022-11-30T09:01:56.921Z,31.77
2022-11-30T09:04:24.822Z,36.27
2022-11-30T09:06:52.696Z,29.77
2022-11-30T09:09:20.574Z,28.50
2022-11-30T09:11:48.347Z,24.30
2022-11-30T09:14:16.145Z,26.60
2022-11-30T09:16:44.018Z,28.63
2022-11-30T09:19:13.191Z,21.73
2022-11-30T09:21:44.239Z,25.60
2022-11-30T09:24:14.932Z,28.10
2022-11-30T09:26:42.689Z,24.80
2022-11-30T09:29:10.506Z,24.73
2022-11-30T09:31:38.394Z,27.13
2022-11-30T09:34:06.249Z,25.87
2022-11-30T09:36:37.140Z,23.40
2022-11-30T09:39:05.071Z,25.80
2022-11-30T09:42:08.079Z,23.10
2022-11-30T09:44:43.694Z,22.37
2022-11-30T09:47:27.694Z,23.30
2022-11-30T09:50:02.107Z,23.40
2022-11-30T09:52:37.545Z,22.60
2022-11-30T09:55:10.367Z,22.00
2022-11-30T09:57:46.856Z,22.70
2022-11-30T10:00:17.721Z,18.80
2022-11-30T10:02:45.974Z,24.37
2022-11-30T10:05:15.452Z,22.87
2022-11-30T10:08:03.171Z,25.00
2022-11-30T10:10:40.012Z,16.97
2022-11-30T10:13:24.409Z,17.47
2022-11-30T10:16:04.777Z,16.90
2022-11-30T10:18:44.440Z,27.10
2022-11-30T10:21:25.028Z,16.70
2022-11-30T10:24:10.568Z,17.00
2022-11-30T10:26:41.674Z,17.17
2022-11-30T10:29:18.050Z,21.97
2022-11-30T10:31:47.382Z,35.87
2022-11-30T10:34:21.541Z,18.97
2022-11-30T10:36:55.448Z,16.40
2022-11-30T10:39:31.274Z,20.53
2022-11-30T10:42:06.013Z,17.20
2022-11-30T10:44:39.761Z,16.17
2022-11-30T10:47:14.625Z,13.70
2022-11-30T10:49:47.302Z,15.67
2022-11-30T10:52:19.655Z,14.70
2022-11-30T10:55:00.503Z,15.17
2022-11-30T10:57:32.811Z,16.60
2022-11-30T11:00:03.609Z,12.60
2022-11-30T11:02:37.478Z,11.17
2022-11-30T11:05:13.772Z,7.87
2022-11-30T11:07:49.135Z,12.97
2022-11-30T11:10:20.184Z,8.30
2022-11-30T11:12:51.080Z,12.30
2022-11-30T11:15:21.744Z,9.80
2022-11-30T11:17:53.031Z,12.13
2022-11-30T11:20:34.135Z,13.40
2022-11-30T11:23:03.745Z,10.70
2022-11-30T11:25:37.640Z,12.67
2022-11-30T11:28:14.947Z,14.27
2022-11-30T11:30:42.997Z,13.37
2022-11-30T11:33:21.788Z,14.47
2022-11-30T11:35:50.878Z,15.93
2022-11-30T11:38:24.094Z,19.60
2022-11-30T11:41:00.119Z,22.43
2022-11-30T11:43:30.418Z,20.00
2022-11-30T11:46:00.903Z,19.90
2022-11-30T11:48:32.903Z,25.40
2022-11-30T11:51:07.586Z,20.90
2022-11-30T11:53:47.428Z,17.37
2022-11-30T11:56:26.239Z,19.60
2022-11-30T11:58:59.683Z,17.27
2022-11-30T12:01:47.163Z,18.33
2022-11-30T12:04:37.247Z,20.10
2022-11-30T12:07:18.090Z,18.60
2022-11-30T12:09:58.122Z,17.73
2022-11-30T12:12:28.369Z,19.33
2022-11-30T12:14:57.372Z,17.80
2022-11-30T12:17:42.623Z,18.83
2022-11-30T12:20:23.556Z,14.27
2022-11-30T12:23:17.946Z,17.30
2022-11-30T12:25:55.882Z,16.80
2022-11-30T12:28:32.516Z,14.30
2022-11-30T12:31:12.229Z,10.90
2022-11-30T12:34:02.244Z,10.10
2022-11-30T12:36:47.312Z,12.73
2022-11-30T12:39:25.735Z,11.33
2022-11-30T12:42:00.147Z,13.07
2022-11-30T12:44:45.367Z,14.63
2022-11-30T12:47:27.390Z,14.77
2022-11-30T12:50:08.770Z,14.90
2022-11-30T12:52:45.212Z,12.57
2022-11-30T12:55:25.692Z,14.97
2022-11-30T12:58:03.108Z,16.03
2022-11-30T13:00:40.774Z,13.90
2022-11-30T13:03:36.266Z,13.57
2022-11-30T13:06:10.181Z,15.47
2022-11-30T13:08:49.404Z,12.33
2022-11-30T13:11:21.200Z,11.87
2022-11-30T13:13:54.445Z,13.50
2022-11-30T13:16:25.788Z,16.93
2022-11-30T13:19:00.217Z,13.40
2022-11-30T13:21:33.669Z,17.77
2022-11-30T13:24:09.777Z,14.70
2022-11-30T13:26:43.867Z,15.50
2022-11-30T13:29:25.199Z,12.33
2022-11-30T13:31:59.695Z,10.73
2022-11-30T13:34:29.012Z,11.27
2022-11-30T13:37:05.599Z,15.50
2022-11-30T13:39:48.941Z,13.73
2022-11-30T13:42:35.858Z,9.50
2022-11-30T13:45:20.319Z,11.87
2022-11-30T13:47:53.320Z,11.93
2022-11-30T13:50:26.998Z,16.17
2022-11-30T13:53:26.679Z,13.27
2022-11-30T13:56:00.691Z,13.13
2022-11-30T13:58:29.808Z,12.53
2022-11-30T14:01:03.307Z,12.73
2022-11-30T14:06:49.078Z,16.30
2022-11-30T14:09:18.072Z,15.70
2022-11-30T14:11:46.278Z,17.47
2022-11-30T14:14:46.873Z,16.77
2022-11-30T14:17:24.848Z,15.57
2022-11-30T14:19:58.603Z,14.77
2022-11-30T14:22:28.131Z,12.87
2022-11-30T14:24:56.509Z,15.77
2022-11-30T14:27:29.963Z,13.43
2022-11-30T14:30:02.877Z,16.80
2022-11-30T14:32:36.124Z,23.47
2022-11-30T14:35:10.588Z,23.93
2022-11-30T14:37:44.464Z,20.80
2022-11-30T14:40:19.086Z,25.43
2022-11-30T14:42:49.911Z,23.33
2022-11-30T14:45:22.442Z,23.90
2022-11-30T14:47:53.443Z,20.40
2022-11-30T14:50:26.374Z,18.40
2022-11-30T14:53:05.873Z,21.90
2022-11-30T14:55:39.386Z,27.60
2022-11-30T14:58:19.055Z,19.47
2022-11-30T15:00:48.351Z,22.73
2022-11-30T15:03:24.401Z,23.70
2022-11-30T15:05:56.191Z,24.53
2022-11-30T15:08:24.841Z,28.63
2022-11-30T15:10:52.649Z,19.77
2022-11-30T15:13:21.343Z,21.00
2022-11-30T15:15:54.587Z,21.03
2022-11-30T15:18:24.247Z,21.33
2022-11-30T15:20:59.899Z,20.73
2022-11-30T15:23:27.892Z,24.30
2022-11-30T15:25:59.245Z,23.00
2022-11-30T15:28:31.755Z,26.43
2022-11-30T15:31:03.705Z,30.73
2022-11-30T15:33:37.950Z,22.50
2022-11-30T15:36:33.078Z,23.00
2022-11-30T15:38:55.990Z,25.93
2022-11-30T15:41:25.522Z,25.07
2022-11-30T15:43:56.639Z,23.87
2022-11-30T15:46:34.785Z,28.53
2022-11-30T15:49:17.235Z,24.73
2022-11-30T15:51:51.025Z,19.77
2022-11-30T15:54:49.452Z,24.77
2022-11-30T15:57:18.225Z,26.40
2022-11-30T16:00:03.829Z,24.00
2022-11-30T16:02:34.693Z,23.50
2022-11-30T16:05:22.182Z,21.67
2022-11-30T16:07:54.529Z,21.10
2022-11-30T16:10:24.866Z,19.10
2022-11-30T16:12:54.733Z,28.83
2022-11-30T16:15:24.940Z,23.37
2022-11-30T16:17:54.512Z,27.83
2022-11-30T16:20:22.699Z,22.20
2022-11-30T16:22:51.946Z,23.03
2022-11-30T16:25:21.684Z,22.07
2022-11-30T16:27:50.204Z,21.53
2022-11-30T16:30:20.801Z,27.73
2022-11-30T16:32:49.109Z,26.30
2022-11-30T16:35:21.621Z,23.63
2022-11-30T16:37:51.267Z,22.60
2022-11-30T16:40:19.547Z,21.20
2022-11-30T16:42:49.262Z,23.50
2022-11-30T16:45:20.892Z,19.03
2022-11-30T16:47:49.104Z,19.03
2022-11-30T16:50:17.386Z,25.47
2022-11-30T16:52:45.455Z,23.57
2022-11-30T16:55:16.518Z,23.77
2022-11-30T16:57:44.593Z,21.83
2022-11-30T17:00:15.821Z,28.30
2022-11-30T17:02:46.597Z,20.83
2022-11-30T17:05:16.054Z,20.67
2022-11-30T17:07:43.992Z,19.70
2022-11-30T17:10:13.426Z,20.53
2022-11-30T17:12:42.689Z,21.33
2022-11-30T17:15:15.388Z,23.67
2022-11-30T17:17:43.312Z,22.30
2022-11-30T17:20:12.912Z,22.40
2022-11-30T17:22:41.233Z,18.60
2022-11-30T17:25:13.258Z,19.27
2022-11-30T17:27:42.496Z,21.90
2022-11-30T17:30:10.988Z,17.73
2022-11-30T17:32:38.789Z,21.90
2022-11-30T17:35:08.089Z,22.20
2022-11-30T17:37:36.407Z,17.33
2022-11-30T17:40:05.048Z,20.07
2022-11-30T17:42:32.901Z,22.10
2022-11-30T17:45:02.025Z,21.33
2022-11-30T17:47:29.816Z,21.10
2022-11-30T17:49:58.407Z,22.07
2022-11-30T17:52:26.465Z,20.00
2022-11-30T17:54:54.231Z,19.43
2022-11-30T17:57:21.995Z,24.60
2022-11-30T17:59:49.798Z,23.07
2022-11-30T18:02:18.984Z,23.30
2022-11-30T18:04:47.202Z,22.00
2022-11-30T18:07:16.439Z,28.07
2022-11-30T18:09:44.185Z,17.90
2022-11-30T18:12:12.508Z,20.07
2022-11-30T18:14:40.279Z,19.57
2022-11-30T18:17:08.256Z,26.50
2022-11-30T18:19:37.652Z,22.17
2022-11-30T18:22:05.470Z,25.83
2022-11-30T18:24:33.407Z,25.77
2022-11-30T18:27:01.210Z,21.00
2022-11-30T18:29:29.332Z,24.03
2022-11-30T18:31:57.124Z,20.90
2022-11-30T18:34:24.920Z,21.07
2022-11-30T18:36:54.000Z,20.50
2022-11-30T18:39:21.928Z,22.77
2022-11-30T18:41:49.875Z,24.03
2022-11-30T18:44:17.732Z,22.37
2022-11-30T18:46:45.804Z,22.53
2022-11-30T18:49:13.609Z,25.17
2022-11-30T18:51:41.337Z,21.07
2022-11-30T18:54:11.474Z,26.57
2022-11-30T18:56:40.140Z,23.17
2022-11-30T18:59:10.866Z,31.53
2022-11-30T19:01:38.741Z,22.33
2022-11-30T19:04:08.864Z,23.70
2022-11-30T19:06:38.017Z,22.70
2022-11-30T19:09:08.397Z,21.30
2022-11-30T19:11:38.702Z,26.00
2022-11-30T19:14:07.209Z,27.50
2022-11-30T19:16:35.890Z,28.20
2022-11-30T19:19:06.342Z,28.30
2022-11-30T19:21:34.768Z,21.53
2022-11-30T19:24:02.625Z,24.17
2022-11-30T19:26:30.868Z,27.00
2022-11-30T19:29:00.124Z,26.00
2022-11-30T19:31:28.509Z,23.43
2022-11-30T19:33:57.201Z,30.20
2022-11-30T19:36:27.142Z,23.43
2022-11-30T19:38:55.485Z,22.00
2022-11-30T19:41:23.614Z,23.50
2022-11-30T19:44:02.488Z,22.60
2022-11-30T19:46:34.384Z,26.30
2022-11-30T19:49:02.946Z,23.37
2022-11-30T19:51:31.885Z,27.43
2022-11-30T19:54:00.232Z,24.67
2022-11-30T19:56:29.899Z,25.40
2022-11-30T19:59:04.019Z,25.07
2022-11-30T20:01:34.049Z,25.37
2022-11-30T20:04:02.025Z,26.30
2022-11-30T20:06:31.556Z,20.63
2022-11-30T20:08:59.525Z,28.70
2022-11-30T20:11:27.365Z,24.87
2022-11-30T20:13:55.238Z,24.80
2022-11-30T20:16:23.908Z,29.30
2022-11-30T20:18:55.390Z,29.60
2022-11-30T20:21:25.193Z,25.60
2022-11-30T20:23:54.606Z,29.27
2022-11-30T20:26:24.603Z,29.97
2022-11-30T20:28:53.163Z,25.57
2022-11-30T20:31:22.879Z,27.33
2022-11-30T20:33:51.085Z,26.10
2022-11-30T20:36:21.795Z,24.53
2022-11-30T20:38:49.804Z,24.60
2022-11-30T20:41:18.996Z,24.60
2022-11-30T20:43:47.630Z,25.80
2022-11-30T20:46:17.449Z,31.23
2022-11-30T20:48:45.639Z,32.53
2022-11-30T20:51:30.705Z,28.87
2022-11-30T20:54:02.253Z,30.23
2022-11-30T20:56:30.166Z,32.03
2022-11-30T20:59:02.116Z,31.30
2022-11-30T21:01:30.055Z,31.40
2022-11-30T21:03:59.442Z,26.07
2022-11-30T21:06:27.664Z,25.60
2022-11-30T21:08:55.775Z,32.97
2022-11-30T21:11:25.447Z,28.67
2022-11-30T21:13:53.815Z,27.37
2022-11-30T21:16:27.767Z,26.23
2022-11-30T21:18:57.980Z,29.87
2022-11-30T21:21:28.291Z,27.33
2022-11-30T21:24:04.556Z,25.40
2022-11-30T21:26:35.005Z,28.60
2022-11-30T21:29:04.973Z,32.77
2022-11-30T21:31:33.030Z,28.40
2022-11-30T21:34:02.876Z,26.83
2022-11-30T21:36:31.128Z,25.70
2022-11-30T21:39:05.718Z,34.27
2022-11-30T21:41:37.301Z,28.87
2022-11-30T21:44:05.496Z,29.27
2022-11-30T21:46:34.063Z,24.07
2022-11-30T21:49:02.295Z,31.30
2022-11-30T21:51:32.044Z,32.47
2022-11-30T21:54:04.243Z,30.47
2022-11-30T21:56:33.564Z,30.07
2022-11-30T21:59:04.526Z,29.80
2022-11-30T22:01:33.968Z,28.60
2022-11-30T22:04:03.652Z,30.23
2022-11-30T22:06:32.923Z,31.03
2022-11-30T22:09:07.511Z,27.17
2022-11-30T22:11:38.880Z,29.03
2022-11-30T22:14:10.859Z,26.30
2022-11-30T22:16:39.032Z,33.80
2022-11-30T22:19:07.715Z,29.03
2022-11-30T22:21:36.467Z,31.17
2022-11-30T22:24:06.149Z,28.30
2022-11-30T22:26:35.643Z,29.77
2022-11-30T22:29:05.258Z,33.50
2022-11-30T22:31:36.485Z,28.80
2022-11-30T22:34:04.587Z,34.23
2022-11-30T22:36:34.512Z,27.07
2022-11-30T22:39:04.915Z,39.43
2022-11-30T22:41:33.333Z,29.57
2022-11-30T22:44:01.123Z,32.50
2022-11-30T22:46:30.628Z,34.33
2022-11-30T22:49:01.930Z,27.77
2022-11-30T22:51:32.118Z,29.20
2022-11-30T22:54:00.550Z,27.03
2022-11-30T22:56:30.201Z,31.13
2022-11-30T23:01:42.874Z,35.70
2022-11-30T23:04:14.150Z,30.87
2022-11-30T23:06:43.107Z,35.97
2022-11-30T23:09:13.836Z,31.07
2022-11-30T23:11:41.697Z,31.93
2022-11-30T23:14:09.815Z,32.70
2022-11-30T23:16:38.302Z,31.63
2022-11-30T23:19:07.251Z,34.17
2022-11-30T23:21:41.393Z,31.40
2022-11-30T23:24:13.450Z,41.23
2022-11-30T23:26:42.011Z,39.30
2022-11-30T23:29:13.109Z,29.97
2022-11-30T23:31:42.198Z,33.67
2022-11-30T23:34:13.707Z,29.50
2022-11-30T23:36:43.301Z,32.43
2022-11-30T23:39:13.306Z,36.07
2022-11-30T23:41:41.867Z,34.30
2022-11-30T23:44:10.910Z,32.63
2022-11-30T23:46:38.992Z,31.37
2022-11-30T23:49:08.009Z,36.10
2022-11-30T23:51:36.029Z,29.73
2022-11-30T23:54:05.460Z,34.77
2022-11-30T23:56:33.351Z,35.70
2022-11-30T23:59:01.266Z,31.30
